Ana Sayfa
METAR-TAF:

METAR-TAF

Havaalanları :

N'Djamena, Çad

Enlem: 12-08N, Boylam: 015-02E, yükseklik: 295 m

Güncel hava durumu gözlemi

Rapor saat 12:00 UTC de 1 saat ve 6 dakika önce yapıldı.
Rüzgar kuzey/kuzeybatıdan 7 kt, kuzey/kuzeybatı ve doğu/kuzeydoğu arasında değişken
Sıcaklık 34°C
Nem 10%
Basınç 1011 hPa
Görüş mesafesi 10 km veya daha fazla
1500 m altında bulut yok ve kümülonimbus yok

METAR: FTTJ 081200Z 33007KT 330V070 CAVOK 34/M02 Q1011 NOSIG

Saat: 14:06 (13:06 UTC)

Tahmin

Rapor saat 11:00 UTC de 2 saat ve 6 dakika önce yapıldı.
Ayın 08'si saat 12 UTC'den ayın 09'si saat 18 UTC'ye kadar geçerli Tahmin
Rüzgar kuzeydan 10 kt
Görüş mesafesi 10 km veya daha fazla
1500 m altında bulut yok ve kümülonimbus yok
Geçici
ayın 08'si saat 16 UTC'den ayın 08'si saat 19 UTC'ye kadar
Görüş mesafesi: 4000 m
yaygın toz

TAF: FTTJ 081100Z 0812/0918 01010KT CAVOK TEMPO 0816/0819 4000 DU

4.000'den fazla havaalanı için hava durumu gözlemleri ve tahminleri (METAR ve TAF raporları).

Kullanılabilir istasyonlar harita üzerinde sarı ve kırmızı noktalarla gösterilir.

İstasyonun adını görmek için fareyi noktanın üzerinde gezdirin.

Sonrasında hava gözlem ve tahminlerini görmek için tıklayın.

Haritayı değiştirmek için: yaklaştırmak için siyah artı işaretli yeşil düğmeye ve uzaklaştırmak için de eksi işaretli düğmeye hızla tıklayın; bitişik haritalar için yeşil okları kullanın.


METAR-TAF: